createdAt,value
2019-05-19T00:03:15.935Z,25.37
2019-05-19T00:08:21.794Z,24.90
2019-05-19T00:13:27.707Z,28.57
2019-05-19T00:18:33.261Z,26.03
2019-05-19T00:23:41.790Z,24.00
2019-05-19T00:28:47.520Z,24.43
2019-05-19T00:33:53.112Z,22.40
2019-05-19T00:38:58.765Z,23.83
2019-05-19T00:44:06.749Z,22.07
2019-05-19T00:49:12.580Z,22.50
2019-05-19T00:54:21.124Z,21.90
2019-05-19T00:59:27.813Z,22.87
2019-05-19T01:04:33.385Z,22.03
2019-05-19T01:09:39.314Z,21.77
2019-05-19T01:14:44.945Z,23.07
2019-05-19T01:19:56.002Z,22.93
2019-05-19T01:30:02.923Z,23.20
2019-05-19T01:35:12.186Z,23.50
2019-05-19T01:40:17.726Z,20.80
2019-05-19T01:45:23.303Z,21.97
2019-05-19T01:50:28.754Z,21.07
2019-05-19T01:55:34.245Z,18.70
2019-05-19T02:00:39.811Z,20.13
2019-05-19T02:05:45.387Z,20.43
2019-05-19T02:10:51.325Z,18.27
2019-05-19T02:16:00.023Z,18.03
2019-05-19T02:21:08.672Z,20.43
2019-05-19T02:26:14.179Z,19.53
2019-05-19T02:31:19.780Z,20.33
2019-05-19T02:36:25.240Z,21.07
2019-05-19T02:41:33.085Z,22.20
2019-05-19T02:46:43.538Z,20.03
2019-05-19T02:51:51.719Z,20.30
2019-05-19T02:56:57.575Z,18.70
2019-05-19T03:02:11.761Z,18.47
2019-05-19T03:07:19.437Z,21.10
2019-05-19T03:12:26.741Z,18.73
2019-05-19T03:17:34.983Z,20.47
2019-05-19T03:22:43.035Z,18.67
2019-05-19T03:27:48.646Z,20.43
2019-05-19T03:32:59.239Z,18.80
2019-05-19T03:38:05.009Z,18.77
2019-05-19T03:43:14.355Z,18.80
2019-05-19T03:48:23.080Z,18.70
2019-05-19T03:53:29.792Z,18.17
2019-05-19T03:58:36.994Z,20.20
2019-05-19T04:03:42.613Z,19.33
2019-05-19T04:08:48.274Z,19.10
2019-05-19T04:13:54.888Z,17.93
2019-05-19T04:24:10.920Z,17.47
2019-05-19T04:29:18.597Z,17.27
2019-05-19T04:34:26.301Z,15.93
2019-05-19T04:39:32.869Z,15.40
2019-05-19T04:44:38.402Z,15.63
2019-05-19T04:49:44.204Z,15.50
2019-05-19T04:54:50.058Z,15.63
2019-05-19T04:59:55.654Z,14.90
2019-05-19T05:05:02.036Z,14.03
2019-05-19T05:10:10.587Z,13.00
2019-05-19T05:15:16.448Z,15.00
2019-05-19T05:20:22.110Z,13.27
2019-05-19T05:25:29.418Z,13.07
2019-05-19T05:30:36.283Z,11.50
2019-05-19T05:35:41.836Z,10.93
2019-05-19T05:40:47.621Z,9.87
2019-05-19T05:45:56.470Z,10.63
2019-05-19T05:51:02.094Z,10.80
2019-05-19T05:56:07.643Z,11.07
2019-05-19T06:01:13.241Z,10.13
2019-05-19T06:06:18.684Z,10.23
2019-05-19T06:11:27.143Z,10.27
2019-05-19T06:16:35.080Z,10.60
2019-05-19T06:21:40.605Z,10.07
2019-05-19T06:26:51.459Z,10.27
2019-05-19T06:32:01.191Z,9.43
2019-05-19T06:37:06.754Z,10.57
2019-05-19T06:42:12.402Z,10.40
2019-05-19T06:47:17.948Z,10.30
2019-05-19T06:52:23.484Z,9.43
2019-05-19T06:57:29.019Z,9.80
2019-05-19T07:02:34.666Z,9.40
2019-05-19T07:07:40.226Z,9.70
2019-05-19T07:12:45.679Z,9.50
2019-05-19T07:17:51.675Z,9.57
2019-05-19T07:22:57.238Z,9.83
2019-05-19T07:28:02.912Z,8.90
2019-05-19T07:33:10.161Z,8.53
2019-05-19T07:38:15.745Z,9.50
2019-05-19T07:43:21.484Z,9.60
2019-05-19T07:48:27.107Z,8.90
2019-05-19T07:53:42.601Z,9.50
2019-05-19T07:58:42.696Z,9.40
2019-05-19T08:03:48.293Z,9.40
2019-05-19T08:08:58.552Z,10.70
2019-05-19T08:14:08.671Z,9.67
2019-05-19T08:19:16.807Z,10.80
2019-05-19T08:24:22.154Z,9.00
2019-05-19T08:29:30.709Z,8.70
2019-05-19T08:34:36.222Z,9.13
2019-05-19T08:39:43.941Z,9.20
2019-05-19T08:44:49.085Z,9.40
2019-05-19T08:49:54.627Z,10.00
2019-05-19T08:55:00.249Z,11.00
2019-05-19T09:00:06.829Z,10.50
2019-05-19T09:05:12.688Z,9.90
2019-05-19T09:10:24.234Z,10.07
2019-05-19T09:15:28.285Z,9.30
2019-05-19T09:20:37.574Z,10.53
2019-05-19T09:25:45.906Z,10.30
2019-05-19T09:30:55.107Z,10.30
2019-05-19T09:36:00.724Z,9.80
2019-05-19T09:41:06.644Z,9.80
2019-05-19T09:46:16.023Z,9.50
2019-05-19T09:51:21.623Z,9.60
2019-05-19T09:56:32.261Z,9.93
2019-05-19T10:01:38.572Z,11.30
2019-05-19T10:06:44.204Z,9.80
2019-05-19T10:12:11.350Z,9.20
2019-05-19T10:17:20.740Z,9.93
2019-05-19T10:22:26.707Z,8.40
2019-05-19T10:27:32.269Z,7.83
2019-05-19T10:32:38.988Z,8.00
2019-05-19T10:37:44.540Z,8.10
2019-05-19T10:42:51.834Z,8.40
2019-05-19T10:47:57.471Z,8.67
2019-05-19T10:53:03.053Z,8.50
2019-05-19T10:58:10.157Z,7.80
2019-05-19T11:03:15.903Z,8.90
2019-05-19T11:08:21.562Z,9.53
2019-05-19T11:13:27.165Z,8.13
2019-05-19T11:18:35.365Z,8.10
2019-05-19T11:23:43.254Z,6.63
2019-05-19T11:28:49.257Z,7.30
2019-05-19T11:33:54.948Z,7.30
2019-05-19T11:39:03.104Z,7.70
2019-05-19T11:44:18.211Z,8.43
2019-05-19T11:49:23.816Z,7.00
2019-05-19T11:54:30.406Z,7.00
2019-05-19T11:59:35.962Z,6.10
2019-05-19T12:04:42.027Z,6.03
2019-05-19T12:09:47.636Z,5.93
2019-05-19T12:14:54.348Z,6.13
2019-05-19T12:20:01.313Z,7.13
2019-05-19T12:25:11.818Z,7.10
2019-05-19T12:30:21.199Z,6.97
2019-05-19T12:35:27.108Z,6.83
2019-05-19T12:40:32.905Z,6.47
2019-05-19T12:45:38.593Z,6.90
2019-05-19T12:50:44.763Z,6.37
2019-05-19T12:55:50.958Z,6.33
2019-05-19T13:01:00.243Z,6.97
2019-05-19T13:06:06.721Z,7.20
2019-05-19T13:11:12.403Z,6.50
2019-05-19T13:16:21.128Z,5.70
2019-05-19T13:21:26.835Z,5.77
2019-05-19T13:26:32.734Z,5.37
2019-05-19T13:31:39.463Z,5.47
2019-05-19T13:36:46.147Z,5.57
2019-05-19T13:41:51.754Z,5.30
2019-05-19T13:46:57.388Z,5.43
2019-05-19T13:52:04.141Z,5.37
2019-05-19T13:57:12.984Z,4.67
2019-05-19T14:02:23.445Z,4.50
2019-05-19T14:07:31.027Z,4.30
2019-05-19T14:12:36.590Z,4.30
2019-05-19T14:17:42.203Z,4.60
2019-05-19T14:22:47.891Z,4.23
2019-05-19T14:27:58.546Z,5.10
2019-05-19T14:33:04.409Z,5.60
2019-05-19T14:38:10.152Z,4.60
2019-05-19T14:43:16.522Z,4.27
2019-05-19T14:48:22.716Z,4.50
2019-05-19T14:53:28.306Z,4.00
2019-05-19T14:58:34.836Z,5.33
2019-05-19T15:03:40.545Z,4.60
2019-05-19T15:08:46.266Z,4.80
2019-05-19T15:13:51.845Z,3.97
2019-05-19T15:18:57.511Z,4.70
2019-05-19T15:24:06.957Z,5.93
2019-05-19T15:29:14.133Z,5.70
2019-05-19T15:34:19.777Z,11.07
2019-05-19T15:39:25.375Z,3.90
2019-05-19T15:50:50.661Z,5.23
2019-05-19T15:55:58.077Z,4.60
2019-05-19T16:01:06.517Z,4.30
2019-05-19T16:06:12.658Z,4.70
2019-05-19T16:11:18.254Z,6.07
2019-05-19T16:16:23.742Z,5.07
2019-05-19T16:21:32.097Z,4.83
2019-05-19T16:26:40.002Z,4.60
2019-05-19T16:31:47.373Z,4.10
2019-05-19T16:36:54.078Z,4.20
2019-05-19T16:41:59.732Z,4.23
2019-05-19T16:47:06.334Z,4.53
2019-05-19T16:52:12.488Z,5.17
2019-05-19T16:57:18.137Z,5.00
2019-05-19T17:02:27.759Z,5.00
2019-05-19T17:07:33.701Z,4.27
2019-05-19T17:12:39.703Z,4.77
2019-05-19T17:17:49.041Z,5.30
2019-05-19T17:22:54.636Z,3.80
2019-05-19T17:28:06.008Z,4.70
2019-05-19T17:33:13.434Z,4.60
2019-05-19T17:38:20.427Z,4.20
2019-05-19T17:43:26.221Z,4.75
2019-05-19T17:48:36.381Z,4.80
2019-05-19T17:53:42.187Z,4.23
2019-05-19T17:58:48.606Z,4.40
2019-05-19T18:03:54.221Z,4.53
2019-05-19T18:09:00.170Z,5.40
2019-05-19T18:14:08.362Z,5.57
2019-05-19T18:19:14.730Z,5.10
2019-05-19T18:24:20.377Z,4.93
2019-05-19T18:29:31.941Z,4.87
2019-05-19T18:34:41.204Z,5.70
2019-05-19T18:39:47.312Z,4.70
2019-05-19T18:44:53.604Z,6.10
2019-05-19T18:50:00.934Z,7.83
2019-05-19T18:55:07.821Z,9.53
2019-05-19T19:00:22.653Z,8.00
2019-05-19T19:05:28.815Z,7.60
2019-05-19T19:10:40.995Z,31.93
2019-05-19T19:15:48.938Z,18.03
2019-05-19T19:20:55.444Z,12.60
2019-05-19T19:26:01.617Z,15.17
2019-05-19T19:31:09.050Z,15.57
2019-05-19T19:36:15.174Z,7.80
2019-05-19T19:41:22.832Z,7.70
2019-05-19T19:46:28.551Z,8.90
2019-05-19T19:51:38.742Z,10.30
2019-05-19T19:56:45.758Z,17.77
2019-05-19T20:01:55.971Z,15.40
2019-05-19T20:07:05.769Z,11.83
2019-05-19T20:12:15.604Z,13.30
2019-05-19T20:17:20.392Z,7.90
2019-05-19T20:22:27.713Z,7.20
2019-05-19T20:27:35.322Z,7.87
2019-05-19T20:32:43.630Z,8.73
2019-05-19T20:37:49.599Z,8.20
2019-05-19T20:42:57.088Z,10.17
2019-05-19T20:48:05.723Z,9.90
2019-05-19T20:53:15.235Z,9.57
2019-05-19T20:58:20.541Z,9.33
2019-05-19T21:03:27.359Z,11.90
2019-05-19T21:08:32.969Z,10.50
2019-05-19T21:13:41.273Z,10.03
2019-05-19T21:18:46.860Z,9.77
2019-05-19T21:23:52.503Z,8.00
2019-05-19T21:29:05.348Z,8.47
2019-05-19T21:34:11.049Z,8.40
2019-05-19T21:39:16.910Z,9.20
2019-05-19T21:44:22.451Z,8.40
2019-05-19T21:49:31.033Z,8.80
2019-05-19T21:54:36.559Z,8.73
2019-05-19T21:59:42.137Z,8.87
2019-05-19T22:04:48.942Z,9.20
2019-05-19T22:09:54.964Z,9.20
2019-05-19T22:15:00.495Z,9.40
2019-05-19T22:20:08.581Z,9.10
2019-05-19T22:25:14.424Z,9.17
2019-05-19T22:30:20.190Z,9.00
2019-05-19T22:35:25.726Z,9.50
2019-05-19T22:40:34.403Z,9.33
2019-05-19T22:45:40.035Z,8.87
2019-05-19T22:50:51.931Z,9.53
2019-05-19T22:56:01.619Z,8.97
2019-05-19T23:01:07.605Z,9.80
2019-05-19T23:06:13.245Z,10.00
2019-05-19T23:11:18.884Z,9.00
2019-05-19T23:16:24.520Z,9.37
2019-05-19T23:21:34.562Z,8.93
2019-05-19T23:26:42.194Z,9.93
2019-05-19T23:32:06.225Z,9.27
2019-05-19T23:37:00.498Z,10.20
2019-05-19T23:42:10.472Z,9.80
2019-05-19T23:47:20.846Z,9.90
2019-05-19T23:52:28.885Z,9.70
2019-05-19T23:57:36.110Z,9.03
